Aromas, California
Current Conditions -  °F | °C
As of 7:53 AM on Thursday 27 Nov 2014 (Local Time) from KWVI Reporting Station
Clear Clear  
Wind Chill: 50°   Ceiling: Unl
Heat Index: 50°   Visibility: 10mi
Dew Point: 42°   Wind: 0mph
Humidity: 74%   Direction: NA
Pressure: 30.18"   Gusts: NA
Location:  36.88°N, 121.64°W
Report Text: KWVI 271553Z AUTO 00000KT 10SM CLR 10/06 A3018 RMK AO2 SLP218 T01000056
Loading
Personal Weather Stations






























Interactive Weather Map New forecast layout! Learn more

10-Day Weather Forecast

Advertisements
Track Severe Weather on mobile